sensor_id;sensor_type;location;lat;lon;timestamp;pressure;altitude;pressure_sealevel;temperature;humidity
73952;BME280;62304;47.662;18.324;2023-10-08T00:00:03;100447.25;;;18.59;46.46
73952;BME280;62304;47.662;18.324;2023-10-08T00:03:26;100453.00;;;18.49;46.82
73952;BME280;62304;47.662;18.324;2023-10-08T00:06:32;100444.34;;;18.36;47.92
73952;BME280;62304;47.662;18.324;2023-10-08T00:09:35;100438.00;;;18.29;48.14
73952;BME280;62304;47.662;18.324;2023-10-08T00:12:39;100431.31;;;18.16;48.59
73952;BME280;62304;47.662;18.324;2023-10-08T00:15:43;100427.25;;;18.20;48.05
73952;BME280;62304;47.662;18.324;2023-10-08T00:18:55;100418.28;;;18.36;47.47
73952;BME280;62304;47.662;18.324;2023-10-08T00:22:11;100408.22;;;18.38;47.27
73952;BME280;62304;47.662;18.324;2023-10-08T00:25:15;100404.94;;;18.43;46.67
73952;BME280;62304;47.662;18.324;2023-10-08T00:28:19;100410.78;;;18.56;45.78
73952;BME280;62304;47.662;18.324;2023-10-08T00:31:23;100405.38;;;18.68;46.00
73952;BME280;62304;47.662;18.324;2023-10-08T00:34:33;100412.44;;;18.80;45.73
73952;BME280;62304;47.662;18.324;2023-10-08T00:37:38;100403.53;;;18.85;45.29
73952;BME280;62304;47.662;18.324;2023-10-08T00:40:42;100401.88;;;18.87;45.45
73952;BME280;62304;47.662;18.324;2023-10-08T00:43:50;100404.94;;;18.96;45.05
73952;BME280;62304;47.662;18.324;2023-10-08T00:46:56;100407.94;;;18.86;45.81
73952;BME280;62304;47.662;18.324;2023-10-08T00:49:59;100408.34;;;18.84;45.73
73952;BME280;62304;47.662;18.324;2023-10-08T00:53:12;100406.47;;;18.74;46.45
73952;BME280;62304;47.662;18.324;2023-10-08T00:56:29;100408.75;;;18.56;46.98
73952;BME280;62304;47.662;18.324;2023-10-08T00:59:51;100407.47;;;18.64;46.78
73952;BME280;62304;47.662;18.324;2023-10-08T01:02:58;100408.91;;;18.46;47.70
73952;BME280;62304;47.662;18.324;2023-10-08T01:06:05;100397.72;;;18.42;47.84
73952;BME280;62304;47.662;18.324;2023-10-08T01:09:13;100399.09;;;18.27;48.67
73952;BME280;62304;47.662;18.324;2023-10-08T01:12:38;100396.75;;;18.22;48.77
73952;BME280;62304;47.662;18.324;2023-10-08T01:15:52;100403.88;;;18.34;48.96
73952;BME280;62304;47.662;18.324;2023-10-08T01:18:58;100385.87;;;18.24;49.44
73952;BME280;62304;47.662;18.324;2023-10-08T01:22:05;100385.31;;;18.40;48.63
73952;BME280;62304;47.662;18.324;2023-10-08T01:25:10;100384.03;;;18.44;48.77
73952;BME280;62304;47.662;18.324;2023-10-08T01:28:13;100378.47;;;18.41;49.47
73952;BME280;62304;47.662;18.324;2023-10-08T01:31:29;100375.63;;;18.44;49.15
73952;BME280;62304;47.662;18.324;2023-10-08T01:34:32;100372.91;;;18.37;49.61
73952;BME280;62304;47.662;18.324;2023-10-08T01:37:39;100364.91;;;18.36;48.93
73952;BME280;62304;47.662;18.324;2023-10-08T01:40:43;100365.03;;;18.25;49.89
73952;BME280;62304;47.662;18.324;2023-10-08T01:43:46;100368.19;;;18.27;49.33
73952;BME280;62304;47.662;18.324;2023-10-08T01:46:49;100357.06;;;18.20;49.68
73952;BME280;62304;47.662;18.324;2023-10-08T01:49:53;100357.34;;;17.99;51.14
73952;BME280;62304;47.662;18.324;2023-10-08T01:53:07;100363.19;;;17.78;52.42
73952;BME280;62304;47.662;18.324;2023-10-08T01:56:13;100352.84;;;17.75;51.51
73952;BME280;62304;47.662;18.324;2023-10-08T01:59:16;100348.66;;;17.53;54.17
73952;BME280;62304;47.662;18.324;2023-10-08T02:02:19;100343.50;;;17.48;53.13
73952;BME280;62304;47.662;18.324;2023-10-08T02:05:22;100340.38;;;17.39;53.56
73952;BME280;62304;47.662;18.324;2023-10-08T02:08:25;100346.50;;;17.27;54.47
73952;BME280;62304;47.662;18.324;2023-10-08T02:11:29;100362.00;;;17.42;54.31
73952;BME280;62304;47.662;18.324;2023-10-08T02:14:32;100355.87;;;17.54;53.72
73952;BME280;62304;47.662;18.324;2023-10-08T02:17:38;100344.78;;;17.37;54.30
73952;BME280;62304;47.662;18.324;2023-10-08T02:20:42;100343.09;;;17.46;54.62
73952;BME280;62304;47.662;18.324;2023-10-08T02:23:46;100354.72;;;17.48;55.17
73952;BME280;62304;47.662;18.324;2023-10-08T02:26:53;100349.22;;;17.34;56.52
73952;BME280;62304;47.662;18.324;2023-10-08T02:29:57;100348.38;;;17.41;55.63
73952;BME280;62304;47.662;18.324;2023-10-08T02:33:00;100343.56;;;17.38;55.72
73952;BME280;62304;47.662;18.324;2023-10-08T02:36:04;100347.25;;;17.31;56.24
73952;BME280;62304;47.662;18.324;2023-10-08T02:39:07;100335.59;;;17.33;55.84
73952;BME280;62304;47.662;18.324;2023-10-08T02:42:19;100334.19;;;17.18;56.32
73952;BME280;62304;47.662;18.324;2023-10-08T02:45:23;100332.94;;;17.63;53.98
73952;BME280;62304;47.662;18.324;2023-10-08T02:48:27;100322.06;;;17.98;51.64
73952;BME280;62304;47.662;18.324;2023-10-08T02:51:32;100329.63;;;18.35;49.89
73952;BME280;62304;47.662;18.324;2023-10-08T02:54:35;100337.69;;;18.59;48.63
73952;BME280;62304;47.662;18.324;2023-10-08T02:57:41;100331.69;;;18.84;47.92
73952;BME280;62304;47.662;18.324;2023-10-08T03:00:48;100318.94;;;19.02;47.52
73952;BME280;62304;47.662;18.324;2023-10-08T03:03:51;100316.22;;;19.18;46.64
73952;BME280;62304;47.662;18.324;2023-10-08T03:07:05;100308.13;;;19.24;46.75
73952;BME280;62304;47.662;18.324;2023-10-08T03:10:14;100304.53;;;19.42;46.19
73952;BME280;62304;47.662;18.324;2023-10-08T03:13:25;100313.12;;;19.55;46.17
73952;BME280;62304;47.662;18.324;2023-10-08T03:16:29;100305.34;;;19.43;46.36
73952;BME280;62304;47.662;18.324;2023-10-08T03:19:37;100312.41;;;19.51;46.34
73952;BME280;62304;47.662;18.324;2023-10-08T03:22:41;100305.69;;;19.45;46.32
73952;BME280;62304;47.662;18.324;2023-10-08T03:25:55;100295.53;;;19.51;46.17
73952;BME280;62304;47.662;18.324;2023-10-08T03:29:14;100283.56;;;19.47;46.84
73952;BME280;62304;47.662;18.324;2023-10-08T03:32:21;100273.56;;;19.23;47.98
73952;BME280;62304;47.662;18.324;2023-10-08T03:35:29;100275.25;;;19.17;48.50
73952;BME280;62304;47.662;18.324;2023-10-08T03:38:40;100286.03;;;19.22;48.24
73952;BME280;62304;47.662;18.324;2023-10-08T03:41:54;100294.06;;;19.24;48.32
73952;BME280;62304;47.662;18.324;2023-10-08T03:45:10;100291.78;;;19.15;49.23
73952;BME280;62304;47.662;18.324;2023-10-08T03:48:15;100302.16;;;19.18;49.16
73952;BME280;62304;47.662;18.324;2023-10-08T03:51:19;100289.81;;;19.12;49.45
73952;BME280;62304;47.662;18.324;2023-10-08T03:54:25;100296.44;;;19.02;50.06
73952;BME280;62304;47.662;18.324;2023-10-08T03:57:37;100279.50;;;19.06;49.30
73952;BME280;62304;47.662;18.324;2023-10-08T04:00:47;100276.56;;;19.12;48.85
73952;BME280;62304;47.662;18.324;2023-10-08T04:03:50;100270.19;;;19.08;49.28
73952;BME280;62304;47.662;18.324;2023-10-08T04:06:53;100283.59;;;19.01;49.27
73952;BME280;62304;47.662;18.324;2023-10-08T04:09:59;100279.56;;;19.02;49.06
73952;BME280;62304;47.662;18.324;2023-10-08T04:13:21;100272.72;;;19.03;48.89
73952;BME280;62304;47.662;18.324;2023-10-08T04:16:26;100272.34;;;19.01;48.61
73952;BME280;62304;47.662;18.324;2023-10-08T04:19:30;100276.25;;;19.07;48.78
73952;BME280;62304;47.662;18.324;2023-10-08T04:22:33;100262.56;;;19.09;48.69
73952;BME280;62304;47.662;18.324;2023-10-08T04:25:36;100255.72;;;19.10;48.84
73952;BME280;62304;47.662;18.324;2023-10-08T04:28:39;100254.88;;;19.13;48.38
73952;BME280;62304;47.662;18.324;2023-10-08T04:31:43;100267.09;;;19.26;48.25
73952;BME280;62304;47.662;18.324;2023-10-08T04:34:47;100254.56;;;19.50;46.99
73952;BME280;62304;47.662;18.324;2023-10-08T04:37:52;100255.13;;;19.61;46.78
73952;BME280;62304;47.662;18.324;2023-10-08T04:40:56;100254.47;;;19.73;46.15
73952;BME280;62304;47.662;18.324;2023-10-08T04:44:05;100249.94;;;19.79;45.97
73952;BME280;62304;47.662;18.324;2023-10-08T04:47:14;100260.97;;;19.89;45.61
73952;BME280;62304;47.662;18.324;2023-10-08T04:50:36;100256.72;;;20.01;44.80
73952;BME280;62304;47.662;18.324;2023-10-08T04:53:40;100266.44;;;19.96;45.47
73952;BME280;62304;47.662;18.324;2023-10-08T04:56:46;100266.53;;;19.93;45.23
73952;BME280;62304;47.662;18.324;2023-10-08T04:59:52;100279.38;;;19.94;45.49
73952;BME280;62304;47.662;18.324;2023-10-08T05:03:00;100275.31;;;19.95;45.45
73952;BME280;62304;47.662;18.324;2023-10-08T05:06:14;100273.03;;;19.90;45.61
73952;BME280;62304;47.662;18.324;2023-10-08T05:09:29;100269.56;;;19.83;45.78
73952;BME280;62304;47.662;18.324;2023-10-08T05:12:49;100265.69;;;19.77;46.09
73952;BME280;62304;47.662;18.324;2023-10-08T05:16:15;100257.44;;;19.66;46.50
73952;BME280;62304;47.662;18.324;2023-10-08T05:19:38;100267.37;;;19.51;46.79
73952;BME280;62304;47.662;18.324;2023-10-08T05:22:44;100266.69;;;19.47;47.00
73952;BME280;62304;47.662;18.324;2023-10-08T05:25:48;100269.69;;;19.37;47.50
73952;BME280;62304;47.662;18.324;2023-10-08T05:29:09;100276.28;;;19.30;47.81
73952;BME280;62304;47.662;18.324;2023-10-08T05:32:31;100260.25;;;19.27;47.84
73952;BME280;62304;47.662;18.324;2023-10-08T05:35:42;100263.94;;;19.24;48.08
73952;BME280;62304;47.662;18.324;2023-10-08T05:38:46;100265.72;;;19.11;49.06
73952;BME280;62304;47.662;18.324;2023-10-08T05:41:52;100263.31;;;19.13;48.82
73952;BME280;62304;47.662;18.324;2023-10-08T05:44:58;100264.50;;;19.12;49.18
73952;BME280;62304;47.662;18.324;2023-10-08T05:48:17;100265.00;;;19.07;49.34
73952;BME280;62304;47.662;18.324;2023-10-08T05:51:31;100261.09;;;19.01;49.99
73952;BME280;62304;47.662;18.324;2023-10-08T05:54:56;100277.97;;;19.01;50.11
73952;BME280;62304;47.662;18.324;2023-10-08T05:58:25;100284.03;;;19.00;50.49
73952;BME280;62304;47.662;18.324;2023-10-08T06:01:38;100292.47;;;19.00;51.03
73952;BME280;62304;47.662;18.324;2023-10-08T06:04:44;100299.25;;;19.02;50.88
73952;BME280;62304;47.662;18.324;2023-10-08T06:08:07;100298.13;;;18.96;51.51
73952;BME280;62304;47.662;18.324;2023-10-08T06:11:21;100295.63;;;19.02;51.14
73952;BME280;62304;47.662;18.324;2023-10-08T06:14:43;100288.44;;;19.01;51.26
73952;BME280;62304;47.662;18.324;2023-10-08T06:18:12;100303.81;;;18.92;52.05
73952;BME280;62304;47.662;18.324;2023-10-08T06:21:17;100307.16;;;18.84;52.28
73952;BME280;62304;47.662;18.324;2023-10-08T06:24:21;100311.22;;;18.83;52.31
73952;BME280;62304;47.662;18.324;2023-10-08T06:27:28;100312.06;;;18.80;52.37
73952;BME280;62304;47.662;18.324;2023-10-08T06:30:35;100320.88;;;18.82;52.39
73952;BME280;62304;47.662;18.324;2023-10-08T06:33:40;100324.03;;;18.84;52.33
73952;BME280;62304;47.662;18.324;2023-10-08T06:36:44;100332.47;;;18.84;52.15
73952;BME280;62304;47.662;18.324;2023-10-08T06:39:49;100330.47;;;18.85;52.12
73952;BME280;62304;47.662;18.324;2023-10-08T06:42:52;100335.28;;;18.84;52.12
73952;BME280;62304;47.662;18.324;2023-10-08T06:45:58;100335.66;;;18.86;52.72
73952;BME280;62304;47.662;18.324;2023-10-08T06:49:03;100323.62;;;18.86;52.72
73952;BME280;62304;47.662;18.324;2023-10-08T06:52:07;100319.09;;;18.92;52.83
73952;BME280;62304;47.662;18.324;2023-10-08T06:55:14;100310.09;;;19.00;52.70
73952;BME280;62304;47.662;18.324;2023-10-08T06:58:20;100326.84;;;19.07;52.71
73952;BME280;62304;47.662;18.324;2023-10-08T07:01:23;100315.50;;;19.14;53.27
73952;BME280;62304;47.662;18.324;2023-10-08T07:04:27;100321.03;;;19.21;53.09
73952;BME280;62304;47.662;18.324;2023-10-08T07:07:32;100322.91;;;19.28;53.29
73952;BME280;62304;47.662;18.324;2023-10-08T07:10:42;100330.66;;;19.43;52.89
73952;BME280;62304;47.662;18.324;2023-10-08T07:13:45;100336.88;;;19.54;52.70
73952;BME280;62304;47.662;18.324;2023-10-08T07:16:48;100332.56;;;19.69;52.22
73952;BME280;62304;47.662;18.324;2023-10-08T07:19:55;100331.13;;;19.80;52.21
73952;BME280;62304;47.662;18.324;2023-10-08T07:23:00;100343.84;;;19.88;52.43
73952;BME280;62304;47.662;18.324;2023-10-08T07:26:05;100347.59;;;20.01;52.29
73952;BME280;62304;47.662;18.324;2023-10-08T07:29:15;100326.03;;;20.15;51.99
73952;BME280;62304;47.662;18.324;2023-10-08T07:32:22;100319.00;;;20.23;51.71
73952;BME280;62304;47.662;18.324;2023-10-08T07:35:29;100313.22;;;20.29;52.22
73952;BME280;62304;47.662;18.324;2023-10-08T07:38:33;100317.91;;;20.36;51.81
73952;BME280;62304;47.662;18.324;2023-10-08T07:41:37;100306.38;;;20.46;52.02
73952;BME280;62304;47.662;18.324;2023-10-08T07:44:41;100308.59;;;20.55;52.09
73952;BME280;62304;47.662;18.324;2023-10-08T07:47:44;100302.00;;;20.61;51.66
73952;BME280;62304;47.662;18.324;2023-10-08T07:50:48;100315.75;;;20.75;51.49
73952;BME280;62304;47.662;18.324;2023-10-08T07:53:53;100332.69;;;20.91;51.55
73952;BME280;62304;47.662;18.324;2023-10-08T07:56:59;100320.44;;;21.14;51.09
73952;BME280;62304;47.662;18.324;2023-10-08T08:00:29;100329.31;;;21.28;50.84
73952;BME280;62304;47.662;18.324;2023-10-08T08:03:34;100316.53;;;21.40;50.75
73952;BME280;62304;47.662;18.324;2023-10-08T08:06:40;100327.78;;;21.56;49.76
73952;BME280;62304;47.662;18.324;2023-10-08T08:09:48;100334.81;;;21.64;50.00
73952;BME280;62304;47.662;18.324;2023-10-08T08:12:55;100314.91;;;21.55;49.94
73952;BME280;62304;47.662;18.324;2023-10-08T08:16:00;100307.09;;;21.75;49.72
73952;BME280;62304;47.662;18.324;2023-10-08T08:19:12;100320.19;;;21.97;49.63
73952;BME280;62304;47.662;18.324;2023-10-08T08:22:21;100311.84;;;22.19;48.94
73952;BME280;62304;47.662;18.324;2023-10-08T08:25:25;100314.16;;;22.36;48.94
73952;BME280;62304;47.662;18.324;2023-10-08T08:28:45;100313.28;;;22.64;48.76
73952;BME280;62304;47.662;18.324;2023-10-08T08:31:48;100322.34;;;22.84;48.14
73952;BME280;62304;47.662;18.324;2023-10-08T08:34:56;100327.50;;;22.98;47.76
73952;BME280;62304;47.662;18.324;2023-10-08T08:38:01;100329.13;;;22.62;48.30
73952;BME280;62304;47.662;18.324;2023-10-08T08:41:05;100334.09;;;22.58;48.68
73952;BME280;62304;47.662;18.324;2023-10-08T08:44:13;100337.50;;;22.12;50.11
73952;BME280;62304;47.662;18.324;2023-10-08T08:47:17;100329.47;;;21.82;50.68
73952;BME280;62304;47.662;18.324;2023-10-08T08:50:22;100349.66;;;21.68;51.52
73952;BME280;62304;47.662;18.324;2023-10-08T08:53:26;100353.03;;;21.47;52.40
73952;BME280;62304;47.662;18.324;2023-10-08T08:56:30;100355.34;;;21.36;53.13
73952;BME280;62304;47.662;18.324;2023-10-08T08:59:34;100357.38;;;21.19;53.54
73952;BME280;62304;47.662;18.324;2023-10-08T09:02:40;100343.00;;;21.14;53.85
73952;BME280;62304;47.662;18.324;2023-10-08T09:05:43;100351.56;;;21.10;54.11
73952;BME280;62304;47.662;18.324;2023-10-08T09:08:53;100368.56;;;21.07;54.66
73952;BME280;62304;47.662;18.324;2023-10-08T09:11:59;100369.97;;;20.99;54.89
73952;BME280;62304;47.662;18.324;2023-10-08T09:15:04;100381.28;;;20.79;55.90
73952;BME280;62304;47.662;18.324;2023-10-08T09:18:07;100400.25;;;20.79;56.29
73952;BME280;62304;47.662;18.324;2023-10-08T09:21:18;100420.84;;;20.76;56.77
73952;BME280;62304;47.662;18.324;2023-10-08T09:24:25;100408.94;;;20.68;57.44
73952;BME280;62304;47.662;18.324;2023-10-08T09:27:28;100421.88;;;20.66;57.58
73952;BME280;62304;47.662;18.324;2023-10-08T09:30:35;100460.75;;;20.55;58.59
73952;BME280;62304;47.662;18.324;2023-10-08T09:33:43;100472.19;;;20.28;60.58
73952;BME280;62304;47.662;18.324;2023-10-08T09:36:57;100489.62;;;19.77;61.75
73952;BME280;62304;47.662;18.324;2023-10-08T09:40:03;100516.06;;;19.34;63.40
73952;BME280;62304;47.662;18.324;2023-10-08T09:43:11;100518.91;;;19.04;64.07
73952;BME280;62304;47.662;18.324;2023-10-08T09:46:18;100537.72;;;18.77;64.76
73952;BME280;62304;47.662;18.324;2023-10-08T09:49:40;100544.81;;;18.55;65.86
73952;BME280;62304;47.662;18.324;2023-10-08T09:52:54;100550.22;;;18.39;66.23
73952;BME280;62304;47.662;18.324;2023-10-08T09:55:59;100549.44;;;18.35;66.21
73952;BME280;62304;47.662;18.324;2023-10-08T09:59:08;100532.22;;;18.33;66.43
73952;BME280;62304;47.662;18.324;2023-10-08T10:02:12;100530.28;;;18.23;66.48
73952;BME280;62304;47.662;18.324;2023-10-08T10:05:37;100543.06;;;18.31;65.92
73952;BME280;62304;47.662;18.324;2023-10-08T10:08:41;100543.97;;;18.21;65.94
73952;BME280;62304;47.662;18.324;2023-10-08T10:11:48;100565.28;;;18.15;65.70
73952;BME280;62304;47.662;18.324;2023-10-08T10:14:53;100571.78;;;18.05;65.34
73952;BME280;62304;47.662;18.324;2023-10-08T10:24:33;100583.63;;;17.79;66.29
73952;BME280;62304;47.662;18.324;2023-10-08T10:27:40;100572.47;;;17.72;66.76
73952;BME280;62304;47.662;18.324;2023-10-08T10:30:45;100587.34;;;17.66;66.84
73952;BME280;62304;47.662;18.324;2023-10-08T10:33:49;100612.63;;;17.62;66.83
73952;BME280;62304;47.662;18.324;2023-10-08T10:36:53;100612.69;;;17.55;66.96
73952;BME280;62304;47.662;18.324;2023-10-08T10:39:58;100620.72;;;17.53;67.06
73952;BME280;62304;47.662;18.324;2023-10-08T10:43:03;100627.09;;;17.57;66.84
73952;BME280;62304;47.662;18.324;2023-10-08T10:46:09;100633.53;;;17.54;66.98
73952;BME280;62304;47.662;18.324;2023-10-08T10:49:34;100644.75;;;17.47;65.91
73952;BME280;62304;47.662;18.324;2023-10-08T10:52:39;100646.75;;;17.50;64.50
73952;BME280;62304;47.662;18.324;2023-10-08T10:55:48;100655.22;;;17.36;63.86
73952;BME280;62304;47.662;18.324;2023-10-08T10:59:02;100649.66;;;17.29;63.33
73952;BME280;62304;47.662;18.324;2023-10-08T11:02:19;100652.53;;;17.15;63.25
73952;BME280;62304;47.662;18.324;2023-10-08T11:05:34;100660.16;;;17.11;62.83
73952;BME280;62304;47.662;18.324;2023-10-08T11:08:41;100664.97;;;17.07;62.73
73952;BME280;62304;47.662;18.324;2023-10-08T11:11:49;100668.97;;;17.06;62.75
73952;BME280;62304;47.662;18.324;2023-10-08T11:14:58;100657.75;;;17.06;62.53
73952;BME280;62304;47.662;18.324;2023-10-08T11:18:01;100656.97;;;17.02;62.67
73952;BME280;62304;47.662;18.324;2023-10-08T11:21:09;100677.78;;;17.05;62.93
73952;BME280;62304;47.662;18.324;2023-10-08T11:24:29;100672.59;;;17.00;63.02
73952;BME280;62304;47.662;18.324;2023-10-08T11:27:32;100672.19;;;16.98;63.01
73952;BME280;62304;47.662;18.324;2023-10-08T11:30:40;100678.63;;;16.88;63.30
73952;BME280;62304;47.662;18.324;2023-10-08T11:33:46;100677.84;;;16.80;63.25
73952;BME280;62304;47.662;18.324;2023-10-08T11:36:59;100696.69;;;16.69;63.53
73952;BME280;62304;47.662;18.324;2023-10-08T11:40:02;100691.09;;;16.62;63.87
73952;BME280;62304;47.662;18.324;2023-10-08T11:43:15;100711.50;;;16.59;64.25
73952;BME280;62304;47.662;18.324;2023-10-08T11:46:26;100704.72;;;16.60;64.63
73952;BME280;62304;47.662;18.324;2023-10-08T11:49:50;100702.72;;;16.54;64.83
73952;BME280;62304;47.662;18.324;2023-10-08T11:53:01;100707.91;;;16.45;64.56
73952;BME280;62304;47.662;18.324;2023-10-08T11:56:11;100710.28;;;16.36;64.28
73952;BME280;62304;47.662;18.324;2023-10-08T11:59:16;100710.28;;;16.25;64.26
73952;BME280;62304;47.662;18.324;2023-10-08T12:02:20;100727.84;;;16.12;64.44
73952;BME280;62304;47.662;18.324;2023-10-08T12:05:24;100725.44;;;16.03;64.54
73952;BME280;62304;47.662;18.324;2023-10-08T12:08:27;100748.22;;;15.91;64.51
73952;BME280;62304;47.662;18.324;2023-10-08T12:11:31;100760.59;;;15.90;64.39
73952;BME280;62304;47.662;18.324;2023-10-08T12:14:35;100756.16;;;15.79;64.04
73952;BME280;62304;47.662;18.324;2023-10-08T12:17:40;100754.19;;;15.86;63.88
73952;BME280;62304;47.662;18.324;2023-10-08T12:20:44;100746.59;;;15.83;63.52
73952;BME280;62304;47.662;18.324;2023-10-08T12:23:48;100776.94;;;15.78;63.15
73952;BME280;62304;47.662;18.324;2023-10-08T12:26:57;100762.56;;;15.72;62.81
73952;BME280;62304;47.662;18.324;2023-10-08T12:30:01;100767.72;;;15.70;62.54
73952;BME280;62304;47.662;18.324;2023-10-08T12:33:06;100778.88;;;15.53;62.05
73952;BME280;62304;47.662;18.324;2023-10-08T12:36:11;100782.78;;;15.41;61.24
73952;BME280;62304;47.662;18.324;2023-10-08T12:39:14;100790.78;;;15.39;61.14
73952;BME280;62304;47.662;18.324;2023-10-08T12:42:18;100786.28;;;15.28;60.95
73952;BME280;62304;47.662;18.324;2023-10-08T12:45:23;100802.22;;;15.24;60.02
73952;BME280;62304;47.662;18.324;2023-10-08T12:48:30;100798.22;;;15.21;60.16
73952;BME280;62304;47.662;18.324;2023-10-08T12:51:33;100814.97;;;15.21;59.87
73952;BME280;62304;47.662;18.324;2023-10-08T12:54:37;100809.00;;;15.19;60.07
73952;BME280;62304;47.662;18.324;2023-10-08T12:57:48;100806.56;;;15.18;59.70
73952;BME280;62304;47.662;18.324;2023-10-08T13:00:58;100811.75;;;15.12;59.51
73952;BME280;62304;47.662;18.324;2023-10-08T13:04:07;100807.41;;;15.22;59.26
73952;BME280;62304;47.662;18.324;2023-10-08T13:07:10;100793.47;;;15.32;59.28
73952;BME280;62304;47.662;18.324;2023-10-08T13:10:15;100795.56;;;15.42;58.90
73952;BME280;62304;47.662;18.324;2023-10-08T13:13:19;100808.03;;;15.55;58.39
73952;BME280;62304;47.662;18.324;2023-10-08T13:16:24;100813.94;;;15.47;58.49
73952;BME280;62304;47.662;18.324;2023-10-08T13:19:29;100813.53;;;15.41;58.27
73952;BME280;62304;47.662;18.324;2023-10-08T13:22:38;100807.81;;;15.27;58.66
73952;BME280;62304;47.662;18.324;2023-10-08T13:25:43;100804.62;;;15.25;58.89
73952;BME280;62304;47.662;18.324;2023-10-08T13:28:52;100815.78;;;15.18;59.04
73952;BME280;62304;47.662;18.324;2023-10-08T13:31:58;100830.88;;;15.10;59.13
73952;BME280;62304;47.662;18.324;2023-10-08T13:35:02;100829.72;;;15.11;59.39
73952;BME280;62304;47.662;18.324;2023-10-08T13:38:07;100826.06;;;15.04;59.80
73952;BME280;62304;47.662;18.324;2023-10-08T13:41:14;100835.19;;;15.01;60.12
73952;BME280;62304;47.662;18.324;2023-10-08T13:44:21;100841.13;;;14.92;60.09
73952;BME280;62304;47.662;18.324;2023-10-08T13:47:33;100837.94;;;14.90;60.16
73952;BME280;62304;47.662;18.324;2023-10-08T13:50:38;100867.81;;;14.86;60.05
73952;BME280;62304;47.662;18.324;2023-10-08T13:53:42;100865.00;;;14.86;60.39
73952;BME280;62304;47.662;18.324;2023-10-08T13:56:49;100867.41;;;14.84;60.37
73952;BME280;62304;47.662;18.324;2023-10-08T13:59:53;100867.81;;;14.86;60.37
73952;BME280;62304;47.662;18.324;2023-10-08T14:02:56;100872.53;;;14.79;60.30
73952;BME280;62304;47.662;18.324;2023-10-08T14:06:03;100879.28;;;14.74;60.31
73952;BME280;62304;47.662;18.324;2023-10-08T14:09:08;100874.03;;;14.69;60.23
73952;BME280;62304;47.662;18.324;2023-10-08T14:12:16;100877.69;;;14.73;60.17
73952;BME280;62304;47.662;18.324;2023-10-08T14:15:20;100878.41;;;14.67;59.95
73952;BME280;62304;47.662;18.324;2023-10-08T14:18:26;100880.38;;;14.66;59.85
73952;BME280;62304;47.662;18.324;2023-10-08T14:21:33;100893.44;;;14.55;60.34
73952;BME280;62304;47.662;18.324;2023-10-08T14:24:43;100895.88;;;14.60;60.07
73952;BME280;62304;47.662;18.324;2023-10-08T14:27:51;100888.63;;;14.52;59.92
73952;BME280;62304;47.662;18.324;2023-10-08T14:30:59;100913.38;;;14.54;59.42
73952;BME280;62304;47.662;18.324;2023-10-08T14:34:05;100914.13;;;14.51;59.36
73952;BME280;62304;47.662;18.324;2023-10-08T14:37:22;100914.13;;;14.51;59.33
73952;BME280;62304;47.662;18.324;2023-10-08T14:40:46;100904.91;;;14.47;59.21
73952;BME280;62304;47.662;18.324;2023-10-08T14:44:08;100904.94;;;14.50;58.94
73952;BME280;62304;47.662;18.324;2023-10-08T14:47:13;100901.37;;;14.50;58.72
73952;BME280;62304;47.662;18.324;2023-10-08T14:50:17;100918.91;;;14.50;58.59
73952;BME280;62304;47.662;18.324;2023-10-08T14:53:21;100922.84;;;14.46;57.77
73952;BME280;62304;47.662;18.324;2023-10-08T14:56:26;100922.06;;;14.45;57.71
73952;BME280;62304;47.662;18.324;2023-10-08T14:59:34;100924.84;;;14.45;57.58
73952;BME280;62304;47.662;18.324;2023-10-08T15:02:38;100930.44;;;14.45;57.42
73952;BME280;62304;47.662;18.324;2023-10-08T15:05:44;100930.78;;;14.40;57.42
73952;BME280;62304;47.662;18.324;2023-10-08T15:08:51;100941.94;;;14.40;57.32
73952;BME280;62304;47.662;18.324;2023-10-08T15:11:55;100942.69;;;14.37;57.10
73952;BME280;62304;47.662;18.324;2023-10-08T15:15:02;100926.31;;;14.36;57.16
73952;BME280;62304;47.662;18.324;2023-10-08T15:18:16;100945.03;;;14.32;57.49
73952;BME280;62304;47.662;18.324;2023-10-08T15:21:23;100960.09;;;14.27;57.98
73952;BME280;62304;47.662;18.324;2023-10-08T15:24:27;100959.66;;;14.22;58.69
73952;BME280;62304;47.662;18.324;2023-10-08T15:27:33;100944.09;;;14.21;58.94
73952;BME280;62304;47.662;18.324;2023-10-08T15:30:37;100989.37;;;14.11;59.49
73952;BME280;62304;47.662;18.324;2023-10-08T15:33:42;100973.41;;;14.11;59.53
73952;BME280;62304;47.662;18.324;2023-10-08T15:36:46;100976.66;;;14.13;59.87
73952;BME280;62304;47.662;18.324;2023-10-08T15:39:50;100987.69;;;14.06;59.79
73952;BME280;62304;47.662;18.324;2023-10-08T15:42:55;100996.41;;;14.01;59.92
73952;BME280;62304;47.662;18.324;2023-10-08T15:46:03;100990.84;;;14.01;60.02
73952;BME280;62304;47.662;18.324;2023-10-08T15:49:09;100999.13;;;13.98;60.00
73952;BME280;62304;47.662;18.324;2023-10-08T15:52:15;100999.47;;;13.93;60.28
73952;BME280;62304;47.662;18.324;2023-10-08T15:55:19;101008.16;;;13.88;60.68
73952;BME280;62304;47.662;18.324;2023-10-08T15:58:27;101014.47;;;13.85;60.80
73952;BME280;62304;47.662;18.324;2023-10-08T16:01:31;101011.22;;;13.79;60.98
73952;BME280;62304;47.662;18.324;2023-10-08T16:04:36;101021.56;;;13.79;60.85
73952;BME280;62304;47.662;18.324;2023-10-08T16:07:40;101023.84;;;13.73;60.89
73952;BME280;62304;47.662;18.324;2023-10-08T16:10:45;101019.97;;;13.78;60.83
73952;BME280;62304;47.662;18.324;2023-10-08T16:13:49;101035.78;;;13.70;61.02